Fabio Alberto Leon Bentley Airport


Codes: SKMU/MVP
Name: Fabio Alberto Leon Bentley Airport
City: Mitu
Country: Colombia
Elevation: 680 ft.

Photos at Fabio Alberto Leon Bentley Airport


   Photos courtesy of SpottingLog. You can add your own sightings and photos by signing up for a free trial today.



No photos found.

Weather at Fabio Alberto Leon Bentley Airport


Time (UTC)DescriptionTempratureWindCloud coverageVisibilityPressureHumidity
17-Jun-2024 06:00Scattered Clouds21°C2 mph, 46%10000m1013hPa99%
17-Jun-2024 09:00Scattered Clouds21°C2 mph, W42%10000m1013hPa99%
17-Jun-2024 12:00Scattered Clouds22°C0 mph, W34%10000m1013hPa97%
17-Jun-2024 15:00Few Clouds30°C2 mph, S24%10000m1013hPa59%
17-Jun-2024 18:00Light Rain30°C4 mph, SE23%10000m1010hPa64%
17-Jun-2024 21:00Light Rain27°C0 mph, SW70%10000m1009hPa85%
18-Jun-2024 00:00Light Rain23°C0 mph, SW77%10000m1010hPa97%
18-Jun-2024 03:00Overcast Clouds23°C0 mph, SW100%10000m1012hPa97%
18-Jun-2024 06:00Light Rain22°C0 mph, N98%10000m1010hPa99%
18-Jun-2024 09:00Light Rain22°C0 mph, NE98%10000m1010hPa98%
18-Jun-2024 12:00Overcast Clouds23°C0 mph, NE92%10000m1011hPa95%
18-Jun-2024 15:00Broken Clouds30°C2 mph, E73%10000m1011hPa58%
18-Jun-2024 18:00Light Rain33°C2 mph, S50%10000m1008hPa46%
18-Jun-2024 21:00Light Rain24°C2 mph, NW100%10000m1007hPa97%
19-Jun-2024 00:00Light Rain23°C2 mph, NE100%10000m1009hPa96%
19-Jun-2024 03:00Light Rain22°C2 mph, N100%10000m1010hPa98%
19-Jun-2024 06:00Overcast Clouds22°C2 mph, N100%10000m1009hPa98%
19-Jun-2024 09:00Light Rain22°C2 mph, N100%10000m1009hPa99%
19-Jun-2024 12:00Light Rain23°C0 mph, N98%10000m1011hPa98%
19-Jun-2024 15:00Moderate Rain26°C2 mph, NE81%5537m1012hPa93%
19-Jun-2024 18:00Moderate Rain28°C2 mph, N79%10000m1009hPa77%
19-Jun-2024 21:00Moderate Rain27°C2 mph, SE84%10000m1007hPa95%
20-Jun-2024 00:00Moderate Rain23°C2 mph, E92%10000m1009hPa98%
20-Jun-2024 03:00Overcast Clouds22°C0 mph, S100%10000m1011hPa98%
20-Jun-2024 06:00Light Rain22°C0 mph, N100%10000m1009hPa99%
20-Jun-2024 09:00Overcast Clouds22°C0 mph, SW100%10000m1009hPa99%
20-Jun-2024 12:00Light Rain22°C0 mph, SW100%6658m1012hPa100%
20-Jun-2024 15:00Moderate Rain23°C2 mph, W99%10000m1013hPa98%
20-Jun-2024 18:00Light Rain26°C2 mph, W87%10000m1011hPa94%
20-Jun-2024 21:00Light Rain27°C0 mph, W48%9905m1009hPa87%
21-Jun-2024 00:00Light Rain23°C2 mph, W62%10000m1011hPa98%
21-Jun-2024 03:00Moderate Rain22°C0 mph, NW93%6980m1013hPa99%
21-Jun-2024 06:00Light Rain22°C2 mph, W94%10000m1011hPa99%
21-Jun-2024 09:00Light Rain22°C2 mph, NW100%10000m1011hPa100%
21-Jun-2024 12:00Light Rain22°C2 mph, NW100%10000m1013hPa100%
21-Jun-2024 15:00Light Rain23°C2 mph, W100%10000m1014hPa99%
21-Jun-2024 18:00Light Rain23°C2 mph, W99%10000m1012hPa98%
21-Jun-2024 21:00Overcast Clouds25°C4 mph, W95%10000m1011hPa85%
22-Jun-2024 00:00Overcast Clouds23°C2 mph, W97%10000m1012hPa98%
22-Jun-2024 03:00Overcast Clouds22°C2 mph, W98%10000m1014hPa98%